Time;durP1;ratioP1;P1;durP2;ratioP2;P2;SDS_P1;SDS_P2;PMS_P1;PMS_P2;Temp;Humidity;BMP_temperature;BMP_pressure;BME280_temperature;BME280_humidity;BME280_pressure;Samples;Min_cycle;Max_cycle;Signal;HPM_P1;HPM_P2
2022/02/02 00:01:20;;;;;;;;;5.00;5.00;;;;;21.04;36.69;101942.75;5068677;28;51093;-48
2022/02/02 00:03:51;;;;;;;;;7.00;5.00;;;;;21.02;36.64;101938.50;5071579;27;51062;-46
2022/02/02 00:06:33;;;;;;;;;5.00;3.75;;;;;21.01;36.95;101932.16;5060360;28;51699;-47
2022/02/02 00:09:03;;;;;;;;;7.50;6.00;;;;;21.00;36.94;101926.84;5062018;28;51435;-47
2022/02/02 00:14:32;;;;;;;;;3.75;2.75;;;;;20.97;36.65;101932.75;5066221;28;51223;-49
2022/02/02 00:17:03;;;;;;;;;5.50;5.50;;;;;20.94;36.69;101931.22;5060171;28;52028;-47
2022/02/02 00:22:02;;;;;;;;;7.75;5.00;;;;;20.92;36.66;101944.34;5069822;28;50967;-48
2022/02/02 00:25:01;;;;;;;;;5.00;4.25;;;;;20.91;36.71;101934.38;5069652;28;51123;-48
2022/02/02 00:27:20;;;;;;;;;6.75;4.75;;;;;20.90;36.90;101940.94;5073611;28;51196;-46
2022/02/02 00:29:51;;;;;;;;;7.00;5.25;;;;;20.89;36.73;101938.41;5089757;27;51074;-46
2022/02/02 00:34:57;;;;;;;;;5.25;4.25;;;;;20.88;36.59;101931.19;5069690;27;51070;-47
2022/02/02 00:37:23;;;;;;;;;3.50;3.50;;;;;20.85;37.21;101939.88;5065215;28;51123;-45
2022/02/02 00:39:48;;;;;;;;;5.00;4.00;;;;;20.85;36.81;101946.22;5072425;28;50956;-45
2022/02/02 00:42:13;;;;;;;;;5.00;5.00;;;;;20.84;37.22;101936.25;5075914;28;51336;-45
2022/02/02 00:44:45;;;;;;;;;3.75;3.25;;;;;20.83;36.81;101934.53;5065810;28;51249;-47
2022/02/02 00:47:16;;;;;;;;;5.25;4.25;;;;;20.81;36.83;101938.53;5064790;27;50896;-44
2022/02/02 00:49:42;;;;;;;;;5.00;4.50;;;;;20.80;37.12;101939.59;5066490;28;51404;-45
2022/02/02 00:52:07;;;;;;;;;3.75;3.75;;;;;20.79;36.88;101946.16;5065108;28;51196;-48
2022/02/02 00:54:32;;;;;;;;;5.50;4.25;;;;;20.77;36.79;101938.09;5066493;28;51319;-44
2022/02/02 00:56:58;;;;;;;;;4.00;3.25;;;;;20.75;37.18;101946.56;5066883;28;51875;-46
2022/02/02 00:59:23;;;;;;;;;3.75;3.00;;;;;20.73;37.02;101948.63;5067616;27;50955;-45
2022/02/02 01:01:50;;;;;;;;;5.75;5.00;;;;;20.72;37.09;101952.44;5066228;28;51105;-49
2022/02/02 01:04:16;;;;;;;;;2.75;2.75;;;;;20.71;36.66;101953.47;5068603;28;51198;-45
2022/02/02 01:06:51;;;;;;;;;4.00;4.00;;;;;20.70;36.98;101962.78;5060078;28;51640;-46
2022/02/02 01:28:36;;;;;;;;;4.00;4.00;;;;;20.59;36.97;101946.81;5064499;28;51078;-47
2022/02/02 01:31:02;;;;;;;;;3.75;2.50;;;;;20.59;36.83;101949.56;5064851;28;51146;-44
2022/02/02 01:33:28;;;;;;;;;4.50;4.25;;;;;20.58;37.16;101942.34;5065859;28;51130;-46
2022/02/02 01:35:54;;;;;;;;;3.00;2.50;;;;;20.56;37.02;101947.22;5073668;28;51069;-43
2022/02/02 01:38:22;;;;;;;;;4.50;2.75;;;;;20.56;37.18;101949.97;5068619;28;52490;-47
2022/02/02 01:40:55;;;;;;;;;3.25;2.75;;;;;20.54;36.91;101952.06;5073438;28;51162;-50
2022/02/02 01:43:27;;;;;;;;;5.00;3.00;;;;;20.54;37.26;101952.06;5069838;28;51084;-47
2022/02/02 01:46:09;;;;;;;;;3.50;3.25;;;;;20.53;37.16;101961.38;5091894;27;51578;-47
2022/02/02 01:48:49;;;;;;;;;2.50;2.50;;;;;20.52;37.01;101959.63;5068198;28;52895;-48
2022/02/02 01:53:51;;;;;;;;;3.25;3.25;;;;;20.51;37.03;101954.34;5075754;28;50908;-44
2022/02/02 01:56:17;;;;;;;;;5.00;5.00;;;;;20.49;37.30;101949.03;5064251;27;51063;-46
2022/02/02 02:01:10;;;;;;;;;3.25;2.00;;;;;20.47;37.20;101945.63;5070163;28;51205;-47
2022/02/02 02:03:36;;;;;;;;;5.75;4.00;;;;;20.46;36.94;101954.94;5068080;28;51294;-45
2022/02/02 02:06:02;;;;;;;;;3.75;3.00;;;;;20.45;37.25;101958.75;5073675;28;51077;-44
2022/02/02 02:08:28;;;;;;;;;4.00;4.00;;;;;20.44;37.42;101965.28;5070698;28;51635;-44
2022/02/02 02:10:53;;;;;;;;;4.00;3.00;;;;;20.43;37.28;101967.19;5067807;28;51135;-45
2022/02/02 02:15:48;;;;;;;;;3.00;3.00;;;;;20.42;37.43;101959.06;5060438;28;51088;-45
2022/02/02 02:18:13;;;;;;;;;3.00;3.00;;;;;20.41;37.19;101962.88;5067045;28;51085;-47
2022/02/02 02:20:40;;;;;;;;;2.00;1.00;;;;;20.40;37.30;101955.69;5071648;28;51126;-44
2022/02/02 02:23:06;;;;;;;;;3.75;2.25;;;;;20.40;37.48;101958.44;5062247;28;51070;-45
2022/02/02 02:25:33;;;;;;;;;3.00;2.00;;;;;20.40;37.51;101955.69;5068635;28;51110;-46
2022/02/02 02:28:44;;;;;;;;;2.00;2.00;;;;;20.39;37.56;101951.22;5069423;28;52113;-45
2022/02/02 03:54:09;;;;;;;;;5.25;3.25;;;;;20.15;37.60;101957.94;5009745;28;51050;-45
2022/02/02 04:09:26;;;;;;;;;2.25;2.00;;;;;20.11;38.02;101959.34;5066189;28;51294;-45
2022/02/02 04:54:59;;;;;;;;;3.00;3.00;;;;;20.02;37.90;101960.53;5062444;28;51059;-44
2022/02/02 05:00:23;;;;;;;;;3.00;2.50;;;;;20.00;38.13;101954.34;5066102;28;50905;-45
2022/02/02 05:07:53;;;;;;;;;3.00;3.00;;;;;20.00;38.09;101954.34;5071528;28;50968;-49
2022/02/02 05:11:11;;;;;;;;;2.50;2.50;;;;;19.99;37.75;101950.75;5059557;28;52153;-47
2022/02/02 05:14:10;;;;;;;;;3.25;3.25;;;;;19.98;38.19;101960.03;5078277;27;51249;-45
2022/02/02 05:16:11;;;;;;;;;1.50;1.50;;;;;19.98;38.17;101961.94;5070723;27;51036;-45
2022/02/02 05:43:25;;;;;;;;;3.00;3.00;;;;;19.94;38.15;101996.38;5072181;28;51593;-48
2022/02/02 05:53:22;;;;;;;;;4.50;2.75;;;;;19.92;38.22;102002.09;5065241;28;51442;-48
2022/02/02 05:55:49;;;;;;;;;2.00;2.00;;;;;19.90;38.08;102009.66;5060117;28;51196;-45
2022/02/02 05:58:15;;;;;;;;;5.25;4.25;;;;;19.91;38.20;102016.88;5064684;28;51173;-46
2022/02/02 06:00:41;;;;;;;;;7.00;7.00;;;;;19.90;38.35;102017.91;5060249;28;50937;-46
2022/02/02 06:03:12;;;;;;;;;9.25;6.00;;;;;19.88;39.13;102023.59;5060147;28;52126;-46
2022/02/02 06:05:38;;;;;;;;;6.00;6.00;;;;;19.88;38.64;102023.59;5062835;28;51205;-46
2022/02/02 06:08:10;;;;;;;;;7.25;6.25;;;;;19.85;38.76;102017.63;5063507;28;51021;-45
2022/02/02 06:10:36;;;;;;;;;6.00;6.00;;;;;19.82;38.81;102015.28;5072641;27;51066;-45
2022/02/02 06:13:01;;;;;;;;;6.00;6.00;;;;;19.81;39.21;102016.31;5059083;28;52810;-43
2022/02/02 06:15:28;;;;;;;;;7.75;7.00;;;;;19.79;38.90;102026.63;5074897;27;50912;-45
2022/02/02 06:17:53;;;;;;;;;9.00;9.00;;;;;19.77;39.16;102032.31;5065123;28;50972;-44
2022/02/02 06:20:19;;;;;;;;;7.00;6.00;;;;;19.75;39.45;102025.31;5061280;28;50985;-44
2022/02/02 06:23:00;;;;;;;;;8.50;6.75;;;;;19.73;39.07;102035.66;5066024;28;52808;-44
2022/02/02 06:25:29;;;;;;;;;9.00;8.75;;;;;19.70;39.54;102027.78;5072915;27;51395;-44
2022/02/02 06:28:00;;;;;;;;;9.75;7.00;;;;;19.68;39.41;102024.34;5068535;28;51025;-47
2022/02/02 06:30:27;;;;;;;;;8.75;7.00;;;;;19.65;39.63;102035.72;5070379;28;51208;-45
2022/02/02 06:33:00;;;;;;;;;9.50;7.75;;;;;19.66;39.66;102029.19;5056955;28;51122;-46
2022/02/02 06:35:26;;;;;;;;;11.00;7.00;;;;;19.67;39.58;102025.38;5055519;28;51277;-44
2022/02/02 06:37:51;;;;;;;;;5.00;4.50;;;;;19.76;39.69;102024.25;5061237;28;51281;-46
2022/02/02 06:40:19;;;;;;;;;5.25;4.00;;;;;19.85;39.74;102031.38;5066080;28;51221;-47
2022/02/02 06:42:44;;;;;;;;;5.75;4.75;;;;;19.95;39.81;102033.84;5065819;28;51038;-44
2022/02/02 06:45:11;;;;;;;;;4.25;3.25;;;;;20.05;39.87;102034.41;5056763;28;51071;-45
2022/02/02 06:47:39;;;;;;;;;7.00;3.00;;;;;20.13;39.29;102035.16;5065721;28;51166;-45
2022/02/02 06:50:12;;;;;;;;;4.25;4.25;;;;;20.24;39.47;102038.47;5066841;28;51075;-47
2022/02/02 06:52:46;;;;;;;;;4.00;4.00;;;;;20.33;39.48;102031.81;5065266;28;52718;-45
2022/02/02 06:55:26;;;;;;;;;4.00;3.00;;;;;20.42;39.42;102041.63;5061416;28;51316;-45
2022/02/02 06:58:09;;;;;;;;;3.00;3.00;;;;;20.53;39.44;102038.44;5057856;28;51203;-49
2022/02/02 07:03:32;;;;;;;;;3.00;3.00;;;;;20.70;38.88;102047.31;5060056;28;51027;-46
2022/02/02 07:08:43;;;;;;;;;2.50;2.00;;;;;20.87;39.16;102050.69;5066107;28;51233;-47
2022/02/02 07:11:26;;;;;;;;;6.00;2.25;;;;;20.94;39.10;102054.31;5067518;27;50973;-45
2022/02/02 07:14:05;;;;;;;;;3.75;3.00;;;;;21.03;38.84;102066.94;5066512;28;52499;-45
2022/02/02 07:22:11;;;;;;;;;3.25;2.50;;;;;21.25;38.32;102068.63;5061139;28;51046;-45
2022/02/02 07:27:33;;;;;;;;;3.00;2.00;;;;;21.27;38.90;102069.34;5062393;28;51114;-45
2022/02/02 07:32:32;;;;;;;;;3.00;3.00;;;;;21.24;38.68;102077.94;5057204;28;51168;-45
2022/02/02 07:35:28;;;;;;;;;3.00;3.00;;;;;21.23;39.36;102080.91;5051987;28;51140;-45
2022/02/02 07:38:09;;;;;;;;;2.75;2.75;;;;;21.23;39.09;102091.91;5057934;28;51353;-45
2022/02/02 07:40:35;;;;;;;;;4.00;4.00;;;;;21.21;39.32;102094.03;5057853;28;51136;-46
2022/02/02 07:43:04;;;;;;;;;3.00;2.00;;;;;21.20;39.55;102086.81;5057836;28;51514;-47
2022/02/02 07:45:31;;;;;;;;;3.00;3.00;;;;;21.24;39.71;102096.38;5056527;28;51642;-46
2022/02/02 07:48:04;;;;;;;;;3.75;3.00;;;;;21.30;39.13;102104.75;5055727;28;51252;-46
2022/02/02 07:50:34;;;;;;;;;3.00;3.00;;;;;21.39;39.42;102090.84;5089663;27;51091;-49
2022/02/02 07:53:06;;;;;;;;;4.25;3.00;;;;;21.47;39.09;102096.22;5054340;28;51294;-45
2022/02/02 07:55:32;;;;;;;;;3.25;2.25;;;;;21.55;39.44;102093.28;5072123;27;52747;-50
2022/02/02 07:57:59;;;;;;;;;3.00;3.00;;;;;21.58;39.13;102095.69;5057089;28;50935;-48
2022/02/02 08:00:25;;;;;;;;;3.50;2.75;;;;;21.59;39.27;102100.13;5057428;28;51261;-47
2022/02/02 08:03:09;;;;;;;;;4.50;3.00;;;;;21.57;39.03;102105.84;5055911;28;51183;-45
2022/02/02 08:05:40;;;;;;;;;6.50;3.25;;;;;21.54;38.57;102105.38;5056998;28;50986;-48
2022/02/02 08:10:38;;;;;;;;;5.25;3.00;;;;;21.43;38.50;102098.50;5057783;28;51222;-44
2022/02/02 08:13:10;;;;;;;;;4.25;3.00;;;;;21.39;38.42;102110.13;5057828;28;51528;-45
2022/02/02 08:15:36;;;;;;;;;7.00;3.00;;;;;21.33;38.52;102109.88;5057348;28;51044;-47
2022/02/02 08:18:02;;;;;;;;;5.25;3.25;;;;;21.29;38.64;102108.56;5057297;28;51107;-45
2022/02/02 08:20:28;;;;;;;;;5.25;3.50;;;;;21.25;38.82;102111.88;5057441;28;51148;-44
2022/02/02 08:22:54;;;;;;;;;5.00;4.25;;;;;21.21;38.48;102118.81;5057876;28;50989;-44
2022/02/02 08:25:27;;;;;;;;;7.75;4.00;;;;;21.16;38.97;102118.59;5057204;28;51881;-48
2022/02/02 08:27:57;;;;;;;;;5.00;4.00;;;;;21.12;38.65;102120.00;5074380;28;51072;-44
2022/02/02 08:30:24;;;;;;;;;6.25;4.00;;;;;21.08;38.86;102125.06;5077748;27;51183;-44
2022/02/02 08:32:57;;;;;;;;;5.75;3.75;;;;;21.03;38.93;102125.63;5077684;27;51060;-45
2022/02/02 08:35:27;;;;;;;;;4.75;2.75;;;;;21.00;38.95;102122.44;5072095;27;52856;-46
2022/02/02 08:38:22;;;;;;;;;5.00;4.00;;;;;20.96;38.47;102121.97;5051227;28;51194;-46
2022/02/02 08:40:44;;;;;;;;;4.50;3.00;;;;;20.93;38.49;102119.59;5052589;28;51356;-44
2022/02/02 08:43:14;;;;;;;;;5.00;4.50;;;;;20.91;38.90;102124.44;5053171;28;51084;-45
2022/02/02 08:45:43;;;;;;;;;2.50;2.25;;;;;20.89;38.89;102128.44;5053849;28;51845;-46
2022/02/02 08:48:11;;;;;;;;;5.25;3.00;;;;;20.87;38.87;102139.66;5055385;28;50981;-44
2022/02/02 08:51:14;;;;;;;;;4.75;3.75;;;;;20.85;39.07;102129.91;5054337;28;51210;-46
2022/02/02 08:58:39;;;;;;;;;3.25;3.25;;;;;20.78;38.86;102131.72;5054599;28;50976;-44
2022/02/02 09:01:13;;;;;;;;;5.50;4.00;;;;;20.77;39.25;102128.09;5051902;28;51143;-45
2022/02/02 09:06:22;;;;;;;;;5.00;3.50;;;;;20.73;39.30;102133.13;5054740;28;50937;-47
2022/02/02 09:08:50;;;;;;;;;3.25;3.25;;;;;20.72;39.05;102122.31;5055461;28;51218;-47
2022/02/02 09:25:23;;;;;;;;;3.75;3.75;;;;;20.65;39.17;102125.00;5016829;28;51246;-51
2022/02/02 09:35:55;;;;;;;;;3.75;2.25;;;;;20.73;39.52;102113.84;5053562;28;51072;-48
2022/02/02 09:38:21;;;;;;;;;3.00;3.00;;;;;20.78;39.05;102109.66;5055745;28;51835;-48
2022/02/02 09:43:23;;;;;;;;;5.50;2.50;;;;;20.96;39.17;102105.44;5054363;28;51209;-44
2022/02/02 09:46:14;;;;;;;;;2.75;2.75;;;;;21.08;38.74;102105.78;5061162;28;51016;-44
2022/02/02 09:48:53;;;;;;;;;2.75;1.50;;;;;21.20;38.42;102106.09;5053038;28;51149;-48
2022/02/02 09:51:35;;;;;;;;;4.00;4.00;;;;;21.30;38.60;102107.50;5054674;28;51251;-45
2022/02/02 09:54:20;;;;;;;;;2.00;2.00;;;;;21.41;38.56;102105.28;5054513;28;51001;-44
2022/02/02 09:57:26;;;;;;;;;7.00;4.00;;;;;21.53;38.38;102114.72;5056710;28;51361;-45
2022/02/02 10:15:24;;;;;;;;;4.75;4.75;;;;;21.76;38.04;102139.28;5047663;28;51527;-47
2022/02/02 10:17:57;;;;;;;;;3.75;3.75;;;;;21.75;37.79;102135.69;5059927;28;51545;-50
2022/02/02 10:20:24;;;;;;;;;5.25;3.00;;;;;21.77;37.93;102138.22;5037153;28;51761;-47
2022/02/02 10:22:52;;;;;;;;;4.50;3.00;;;;;21.84;37.40;102137.25;5018779;28;51711;-47
2022/02/02 10:25:40;;;;;;;;;4.75;2.75;;;;;21.93;37.21;102134.34;5021679;28;51191;-45
2022/02/02 10:28:06;;;;;;;;;2.75;2.00;;;;;22.00;37.42;102126.97;5040117;28;51183;-48
2022/02/02 10:30:32;;;;;;;;;2.00;2.00;;;;;22.04;37.69;102131.03;5037069;28;51702;-45
2022/02/02 10:32:58;;;;;;;;;3.00;3.00;;;;;22.05;37.21;102139.09;5037193;28;51087;-47
2022/02/02 10:35:40;;;;;;;;;4.25;2.75;;;;;22.06;37.11;102139.94;5038240;28;51105;-45
2022/02/02 10:38:16;;;;;;;;;4.75;4.00;;;;;22.06;37.47;102150.97;5053921;28;51227;-51
2022/02/02 10:43:35;;;;;;;;;4.00;4.00;;;;;22.01;37.68;102154.34;5031853;28;51177;-48
2022/02/02 10:46:28;;;;;;;;;3.00;3.00;;;;;21.96;37.20;102158.75;5027961;28;51179;-45
2022/02/02 10:49:04;;;;;;;;;4.25;3.00;;;;;21.88;37.65;102157.00;5036374;28;51172;-46
2022/02/02 11:06:53;;;;;;;;;7.25;5.25;;;;;21.71;38.47;102153.69;5031794;28;51249;-47
2022/02/02 11:09:19;;;;;;;;;3.25;3.25;;;;;21.66;38.93;102145.16;5030518;28;51444;-46
2022/02/02 11:11:54;;;;;;;;;8.00;6.50;;;;;21.63;39.21;102142.78;5036817;28;51440;-47
2022/02/02 11:14:34;;;;;;;;;8.75;5.00;;;;;21.60;38.92;102151.47;5034523;28;52292;-48
2022/02/02 11:17:06;;;;;;;;;5.50;5.00;;;;;21.61;39.38;102158.69;5026604;28;51227;-48
2022/02/02 11:19:34;;;;;;;;;4.75;4.75;;;;;21.66;38.90;102158.94;5042852;28;51272;-48
2022/02/02 11:22:20;;;;;;;;;4.25;4.00;;;;;21.74;39.45;102153.28;5037256;28;52893;-47
2022/02/02 11:24:46;;;;;;;;;6.50;4.00;;;;;21.78;39.28;102160.13;5055501;28;51338;-47
2022/02/02 11:27:34;;;;;;;;;6.00;4.25;;;;;21.81;39.26;102156.09;5055549;28;52676;-51
2022/02/02 11:30:03;;;;;;;;;4.25;4.25;;;;;21.79;38.96;102155.47;5057474;28;51080;-48
2022/02/02 11:32:43;;;;;;;;;9.00;5.75;;;;;21.75;39.48;102154.97;5054610;28;51357;-47
2022/02/02 11:35:24;;;;;;;;;4.50;4.50;;;;;21.73;39.84;102161.75;5055249;28;51373;-51
2022/02/02 11:37:59;;;;;;;;;5.00;5.00;;;;;21.69;39.34;102150.28;5055232;28;50940;-47
2022/02/02 11:40:27;;;;;;;;;6.00;5.25;;;;;21.67;39.54;102154.28;5050202;28;51297;-46
2022/02/02 11:43:05;;;;;;;;;11.75;10.50;;;;;21.64;39.56;102150.00;5053069;28;51027;-46
2022/02/02 11:46:00;;;;;;;;;7.25;7.25;;;;;21.61;39.63;102150.41;5054081;28;51317;-47
2022/02/02 11:48:44;;;;;;;;;9.00;6.00;;;;;21.59;39.70;102153.38;5052677;28;51224;-46
2022/02/02 11:51:10;;;;;;;;;6.75;6.25;;;;;21.63;40.24;102151.06;5055354;28;51291;-48
2022/02/02 11:53:47;;;;;;;;;8.00;6.00;;;;;21.70;39.64;102157.50;5051264;28;53364;-46
2022/02/02 11:56:13;;;;;;;;;7.00;5.50;;;;;21.77;39.82;102152.88;5051942;28;51396;-48
2022/02/02 11:58:38;;;;;;;;;3.25;3.25;;;;;21.83;40.04;102152.09;5054815;28;50938;-47
2022/02/02 12:04:05;;;;;;;;;5.25;4.25;;;;;21.83;39.54;102152.09;5053866;28;51723;-45
2022/02/02 12:09:41;;;;;;;;;7.50;5.00;;;;;21.80;40.03;102157.16;5050469;28;51487;-44
2022/02/02 13:03:06;;;;;;;;;4.25;4.00;;;;;21.93;39.95;102123.31;5056361;28;50991;-49
2022/02/02 13:05:36;;;;;;;;;5.50;3.00;;;;;21.93;40.31;102117.78;5089463;27;51104;-45
2022/02/02 13:08:01;;;;;;;;;3.25;3.25;;;;;21.90;40.23;102113.53;5055899;28;51217;-45
2022/02/02 13:10:31;;;;;;;;;3.75;3.50;;;;;21.87;40.00;102114.75;5056460;28;50969;-45
2022/02/02 13:13:08;;;;;;;;;4.00;2.50;;;;;21.86;40.28;102128.75;5056705;28;51123;-45
2022/02/02 13:15:57;;;;;;;;;3.25;2.75;;;;;21.82;40.13;102131.06;5057019;28;51019;-44
2022/02/02 13:18:48;;;;;;;;;2.00;2.00;;;;;21.79;40.08;102138.91;5055366;28;52071;-45
2022/02/02 13:21:56;;;;;;;;;4.00;3.25;;;;;21.76;40.15;102134.63;5056415;28;51055;-45
2022/02/02 13:24:14;;;;;;;;;1.75;1.75;;;;;21.74;40.03;102136.72;5054409;28;51304;-45
2022/02/02 13:29:26;;;;;;;;;2.00;2.00;;;;;21.82;40.55;102122.81;5056880;27;50967;-45
2022/02/02 13:32:00;;;;;;;;;4.00;2.00;;;;;21.92;40.38;102127.13;5057481;28;51083;-45
2022/02/02 13:48:00;;;;;;;;;3.75;3.50;;;;;21.92;40.46;102133.50;5051564;28;51144;-45
2022/02/02 14:33:25;;;;;;;;;4.50;2.50;;;;;22.00;40.26;102114.03;5054461;28;51443;-48
2022/02/02 14:35:56;;;;;;;;;1.50;1.50;;;;;22.00;40.72;102124.22;5054702;28;50988;-48
2022/02/02 14:38:22;;;;;;;;;2.00;2.00;;;;;21.99;40.23;102128.00;5057627;28;51017;-48
2022/02/02 14:43:23;;;;;;;;;2.25;2.00;;;;;22.03;40.38;102141.19;5056976;28;51138;-49
2022/02/02 14:45:53;;;;;;;;;1.75;1.75;;;;;22.11;40.22;102143.84;5052553;28;51456;-44
2022/02/02 14:48:32;;;;;;;;;2.00;1.00;;;;;22.15;40.28;102142.38;5054265;28;51092;-49
2022/02/02 14:54:14;;;;;;;;;3.00;3.00;;;;;22.14;40.03;102142.59;5025689;28;51631;-49
2022/02/02 15:29:46;;;;;;;;;5.75;3.75;;;;;22.12;40.54;102139.19;5056212;28;51347;-47
2022/02/02 15:32:00;;;;;;;;;3.75;2.75;;;;;22.07;40.13;102128.72;5052731;28;51169;-46
2022/02/02 15:34:33;;;;;;;;;4.25;4.00;;;;;22.02;40.14;102133.97;5052148;28;51302;-48
2022/02/02 15:39:26;;;;;;;;;4.00;4.00;;;;;22.00;40.39;102151.81;5055242;28;51053;-45
2022/02/02 16:01:23;;;;;;;;;8.00;5.50;;;;;22.14;39.93;102126.03;5052907;28;51087;-46
2022/02/02 16:03:06;;;;;;;;;5.50;4.75;;;;;22.10;40.55;102119.22;5054043;28;51198;-45
2022/02/02 16:05:54;;;;;;;;;4.75;4.00;;;;;22.09;40.24;102117.47;5054855;28;50948;-45
2022/02/02 16:08:23;;;;;;;;;4.75;4.00;;;;;22.07;40.02;102119.59;5054658;28;53049;-45
2022/02/02 16:11:04;;;;;;;;;2.50;2.50;;;;;22.05;40.03;102121.69;5052990;28;51185;-45
2022/02/02 16:13:43;;;;;;;;;3.00;3.00;;;;;22.03;40.08;102123.81;5052533;28;51233;-47
2022/02/02 16:17:02;;;;;;;;;3.25;3.25;;;;;22.01;40.50;102117.63;5056808;28;51248;-46
2022/02/02 16:19:15;;;;;;;;;5.00;3.50;;;;;21.98;40.30;102113.34;5049610;28;51060;-48
2022/02/02 16:25:00;;;;;;;;;2.00;2.00;;;;;22.03;40.46;102112.75;5051117;28;51180;-49
2022/02/02 16:38:18;;;;;;;;;3.00;3.00;;;;;22.14;39.93;102103.94;5053428;28;51138;-48
2022/02/02 16:40:49;;;;;;;;;4.50;3.50;;;;;22.11;39.99;102099.69;5050923;28;51206;-45
2022/02/02 16:43:14;;;;;;;;;3.00;3.00;;;;;22.10;40.05;102103.50;5053581;28;51168;-45
2022/02/02 16:45:50;;;;;;;;;3.00;3.00;;;;;22.08;40.42;102105.59;5052006;28;51290;-46
2022/02/02 16:48:16;;;;;;;;;2.25;2.25;;;;;22.06;40.11;102099.44;5035984;28;51040;-46
2022/02/02 16:50:46;;;;;;;;;2.25;2.25;;;;;22.04;40.63;102104.28;5048687;28;52444;-46
2022/02/02 16:55:54;;;;;;;;;2.25;2.25;;;;;22.02;40.70;102091.75;5054636;28;51266;-46
2022/02/02 17:30:51;;;;;;;;;1.50;1.50;;;;;22.10;40.12;102095.22;5051604;28;51379;-48
2022/02/02 17:33:22;;;;;;;;;2.25;2.25;;;;;22.12;40.57;102086.75;5052341;28;52344;-45
2022/02/02 17:38:29;;;;;;;;;2.00;2.00;;;;;22.10;40.42;102095.22;5054401;28;50975;-46
2022/02/02 18:12:33;;;;;;;;;2.00;1.00;;;;;22.31;40.54;102113.63;5044000;28;51151;-46
2022/02/02 18:21:01;;;;;;;;;1.75;1.75;;;;;22.25;40.89;102108.88;5051982;28;51296;-47
2022/02/02 18:29:10;;;;;;;;;4.00;3.00;;;;;22.19;41.20;102112.44;5052981;28;52159;-46
2022/02/02 18:55:21;;;;;;;;;1.75;1.75;;;;;22.21;40.66;102088.28;5053122;28;51251;-44
2022/02/02 19:01:02;;;;;;;;;2.00;2.00;;;;;22.12;40.86;102104.16;5051420;28;52226;-45
2022/02/02 19:55:34;;;;;;;;;5.00;4.00;;;;;22.01;40.94;102092.81;5054069;28;51079;-48
2022/02/02 20:11:41;;;;;;;;;2.75;2.75;;;;;22.12;41.34;102087.59;5055394;27;51220;-49
2022/02/02 20:14:07;;;;;;;;;3.50;2.00;;;;;22.11;40.87;102087.81;5067466;27;52805;-47
2022/02/02 20:16:33;;;;;;;;;4.00;2.00;;;;;22.08;40.88;102091.78;5068404;28;51134;-51
2022/02/02 20:19:01;;;;;;;;;2.00;2.00;;;;;22.05;41.32;102099.59;5060033;28;51177;-47
2022/02/02 20:21:32;;;;;;;;;3.00;1.75;;;;;22.03;41.32;102105.34;5064099;28;51138;-46
2022/02/02 20:24:00;;;;;;;;;2.75;2.75;;;;;22.01;41.65;102112.97;5060609;27;52193;-46
2022/02/02 20:26:28;;;;;;;;;3.00;2.00;;;;;22.00;41.73;102114.03;5067919;28;52279;-50
2022/02/02 20:28:53;;;;;;;;;2.25;2.25;;;;;21.99;41.47;102111.44;5071461;27;51135;-46
2022/02/02 20:31:20;;;;;;;;;2.25;2.25;;;;;21.97;41.85;102106.13;5061000;28;51096;-48
2022/02/02 20:33:45;;;;;;;;;2.25;2.25;;;;;21.96;41.62;102109.09;5055757;28;51380;-50
2022/02/02 20:36:10;;;;;;;;;2.50;2.00;;;;;21.97;41.39;102110.78;5055170;28;51368;-48
2022/02/02 20:38:36;;;;;;;;;5.00;2.75;;;;;22.00;41.62;102110.41;5059538;28;52307;-48
2022/02/02 20:41:02;;;;;;;;;2.00;2.00;;;;;22.04;41.73;102114.47;5058545;28;51155;-47
2022/02/02 20:43:34;;;;;;;;;2.75;2.00;;;;;22.03;41.69;102118.28;5061261;28;52719;-49
2022/02/02 21:08:16;;;;;;;;;4.00;3.25;;;;;22.00;40.67;102110.41;5049773;28;51286;-46
2022/02/02 21:10:38;;;;;;;;;0.50;0.00;;;;;22.01;40.95;102107.44;5050437;28;51076;-47
2022/02/02 21:14:04;;;;;;;;;2.00;2.00;;;;;22.00;41.50;102107.66;5050911;28;51372;-44
2022/02/02 21:15:58;;;;;;;;;4.25;2.75;;;;;21.97;41.04;102106.13;5046395;28;51202;-46
2022/02/02 21:18:31;;;;;;;;;2.00;2.00;;;;;21.95;41.17;102099.13;5055320;28;51166;-44
2022/02/02 21:21:04;;;;;;;;;1.50;1.50;;;;;21.93;41.78;102098.47;5052369;28;51196;-46
2022/02/02 21:23:44;;;;;;;;;2.25;2.25;;;;;21.89;41.99;102096.13;5052400;28;51080;-50
2022/02/02 21:28:37;;;;;;;;;3.00;3.00;;;;;21.84;41.11;102104.13;5057935;27;50933;-47
2022/02/02 21:31:04;;;;;;;;;1.50;1.00;;;;;21.86;41.25;102101.19;5050357;28;51073;-46
2022/02/02 21:33:30;;;;;;;;;2.00;2.00;;;;;21.89;41.21;102087.84;5054714;28;52077;-44
2022/02/02 21:35:57;;;;;;;;;2.25;2.25;;;;;21.90;41.29;102089.56;5055304;28;51656;-44
2022/02/02 21:40:53;;;;;;;;;1.75;1.75;;;;;21.88;41.68;102091.66;5052241;28;51129;-45
2022/02/02 21:43:20;;;;;;;;;2.00;2.00;;;;;21.86;41.73;102088.22;5060292;28;51383;-48
2022/02/02 21:45:45;;;;;;;;;1.75;1.75;;;;;21.84;41.90;102086.75;5057375;28;52641;-46
2022/02/02 21:48:11;;;;;;;;;1.25;1.25;;;;;21.81;41.68;102082.47;5052143;28;51032;-46
2022/02/02 21:50:51;;;;;;;;;2.25;2.25;;;;;21.79;41.48;102083.75;5054627;28;50976;-47
2022/02/02 21:53:17;;;;;;;;;5.25;3.25;;;;;21.77;41.42;102083.91;5054324;28;51009;-46
2022/02/02 21:55:42;;;;;;;;;2.00;2.00;;;;;21.81;41.30;102092.66;5088188;27;51615;-47
2022/02/02 21:58:09;;;;;;;;;3.00;3.00;;;;;21.79;41.04;102084.59;5046267;28;51228;-45
2022/02/02 22:00:36;;;;;;;;;3.00;3.00;;;;;21.79;41.77;102075.47;5053552;28;51114;-45
2022/02/02 22:03:01;;;;;;;;;3.00;3.00;;;;;21.77;41.64;102075.66;5057220;28;50938;-47
2022/02/02 22:05:27;;;;;;;;;4.00;3.00;;;;;21.76;41.82;102079.47;5056813;28;51113;-46
2022/02/02 22:07:52;;;;;;;;;5.50;3.75;;;;;21.72;41.60;102078.16;5057565;28;50985;-47
2022/02/02 22:10:19;;;;;;;;;4.50;4.00;;;;;21.70;41.46;102072.00;5053677;28;51283;-47
2022/02/02 22:12:44;;;;;;;;;4.25;2.75;;;;;21.71;40.60;102070.09;5056486;28;51221;-47
2022/02/02 22:15:16;;;;;;;;;6.25;5.25;;;;;21.74;40.97;102067.78;5056716;28;51072;-46
2022/02/02 22:17:41;;;;;;;;;5.75;5.75;;;;;21.77;41.09;102063.75;5053042;28;52138;-47
2022/02/02 22:20:10;;;;;;;;;4.00;4.00;;;;;21.76;41.54;102062.06;5056541;28;51335;-48
2022/02/02 22:22:36;;;;;;;;;6.00;6.00;;;;;21.75;41.56;102066.72;5055222;28;51194;-48
2022/02/02 22:25:01;;;;;;;;;6.25;5.00;;;;;21.72;41.68;102058.03;5057730;28;51322;-48
2022/02/02 22:27:27;;;;;;;;;6.25;5.00;;;;;21.71;40.51;102059.94;5065881;28;51181;-46
2022/02/02 22:29:52;;;;;;;;;7.75;5.00;;;;;21.72;40.33;102066.28;5067866;28;51233;-46
2022/02/02 22:32:18;;;;;;;;;7.75;7.00;;;;;21.76;39.69;102064.81;5060904;28;51038;-46
2022/02/02 22:34:43;;;;;;;;;4.75;4.00;;;;;21.85;39.78;102069.13;5067949;28;51060;-46
2022/02/02 22:37:10;;;;;;;;;6.00;5.00;;;;;21.89;39.31;102063.03;5069567;28;51082;-44
2022/02/02 22:39:42;;;;;;;;;5.75;5.00;;;;;21.92;39.11;102069.19;5068353;28;51154;-45
2022/02/02 22:42:08;;;;;;;;;3.50;3.50;;;;;21.90;39.60;102061.97;5066724;28;51004;-45
2022/02/02 22:44:33;;;;;;;;;6.50;5.00;;;;;21.90;39.46;102064.72;5060426;28;53070;-45
2022/02/02 22:47:04;;;;;;;;;5.00;3.50;;;;;21.90;39.23;102063.88;5055404;28;50994;-44
2022/02/02 22:49:30;;;;;;;;;4.25;4.00;;;;;21.88;38.90;102066.84;5062343;28;51216;-46
2022/02/02 22:51:56;;;;;;;;;4.75;4.00;;;;;21.86;38.49;102062.56;5058502;28;50932;-48
2022/02/02 22:54:21;;;;;;;;;8.00;5.75;;;;;21.84;38.96;102060.00;5061161;27;52059;-46
2022/02/02 22:56:46;;;;;;;;;4.00;4.00;;;;;21.81;38.51;102054.91;5071313;28;50984;-51
2022/02/02 22:59:12;;;;;;;;;4.75;4.75;;;;;21.79;38.54;102048.75;5066666;28;52384;-47
2022/02/02 23:01:38;;;;;;;;;5.00;4.00;;;;;21.78;38.39;102049.78;5066734;28;51000;-51
2022/02/02 23:04:03;;;;;;;;;4.50;4.50;;;;;21.75;38.82;102041.06;5068083;28;51094;-49
2022/02/02 23:06:29;;;;;;;;;5.50;4.25;;;;;21.73;38.43;102044.03;5071310;28;51267;-46
2022/02/02 23:08:55;;;;;;;;;3.75;2.75;;;;;21.70;38.74;102036.16;5067891;27;51574;-46
2022/02/02 23:11:21;;;;;;;;;3.75;2.50;;;;;21.67;38.03;102035.69;5066483;28;51125;-47